createdAt,value
2023-01-07T00:01:42.346Z,9.65
2023-01-07T00:04:13.541Z,9.52
2023-01-07T00:06:43.331Z,10.01
2023-01-07T00:09:16.688Z,9.57
2023-01-07T00:11:45.564Z,9.40
2023-01-07T00:14:16.185Z,9.57
2023-01-07T00:16:44.751Z,9.55
2023-01-07T00:19:15.709Z,9.64
2023-01-07T00:21:44.254Z,9.51
2023-01-07T00:24:13.066Z,9.81
2023-01-07T00:26:41.898Z,9.91
2023-01-07T00:29:10.630Z,10.00
2023-01-07T00:31:41.542Z,9.58
2023-01-07T00:34:10.354Z,10.06
2023-01-07T00:36:41.441Z,10.19
2023-01-07T00:39:13.111Z,9.92
2023-01-07T00:41:41.260Z,9.77
2023-01-07T00:44:10.317Z,9.97
2023-01-07T00:46:39.791Z,10.07
2023-01-07T00:49:07.908Z,9.28
2023-01-07T00:51:36.015Z,9.38
2023-01-07T00:54:04.290Z,9.46
2023-01-07T00:56:33.643Z,9.32
2023-01-07T00:59:01.828Z,9.65
2023-01-07T01:01:30.290Z,9.48
2023-01-07T01:03:59.890Z,9.52
2023-01-07T01:06:27.983Z,9.57
2023-01-07T01:08:56.049Z,9.41
2023-01-07T01:11:24.270Z,9.35
2023-01-07T01:13:53.118Z,9.34
2023-01-07T01:16:21.318Z,9.55
2023-01-07T01:18:50.182Z,9.31
2023-01-07T01:21:19.633Z,8.96
2023-01-07T01:23:47.955Z,9.27
2023-01-07T01:26:18.125Z,9.31
2023-01-07T01:28:46.633Z,9.11
2023-01-07T01:31:19.920Z,9.17
2023-01-07T01:33:54.724Z,9.06
2023-01-07T01:36:24.810Z,9.47
2023-01-07T01:38:55.091Z,9.16
2023-01-07T01:41:23.402Z,9.33
2023-01-07T01:43:53.996Z,9.26
2023-01-07T01:46:32.224Z,9.18
2023-01-07T01:49:04.908Z,9.21
2023-01-07T01:51:40.370Z,8.93
2023-01-07T01:54:12.533Z,8.79
2023-01-07T01:56:48.518Z,8.98
2023-01-07T01:59:20.098Z,8.94
2023-01-07T02:01:48.797Z,9.00
2023-01-07T02:04:23.019Z,8.91
2023-01-07T02:06:59.216Z,9.32
2023-01-07T02:09:29.397Z,9.01
2023-01-07T02:12:09.190Z,9.34
2023-01-07T02:15:03.837Z,9.25
2023-01-07T02:17:45.649Z,8.99
2023-01-07T02:20:44.147Z,9.24
2023-01-07T02:23:43.564Z,9.41
2023-01-07T02:26:40.894Z,9.81
2023-01-07T02:29:37.118Z,9.44
2023-01-07T02:32:26.741Z,9.75
2023-01-07T02:35:06.391Z,9.58
2023-01-07T02:37:46.899Z,8.77
2023-01-07T02:40:22.253Z,8.38
2023-01-07T02:43:03.051Z,8.14
2023-01-07T02:45:33.959Z,8.21
2023-01-07T02:48:06.835Z,8.25
2023-01-07T02:50:35.486Z,8.46
2023-01-07T02:53:03.561Z,8.54
2023-01-07T02:55:40.870Z,8.56
2023-01-07T02:58:33.925Z,8.42
2023-01-07T03:01:22.823Z,7.92
2023-01-07T03:04:11.510Z,8.11
2023-01-07T03:06:54.505Z,8.18
2023-01-07T03:09:30.803Z,7.91
2023-01-07T03:12:08.755Z,8.14
2023-01-07T03:14:43.520Z,8.21
2023-01-07T03:17:18.419Z,8.06
2023-01-07T03:19:52.379Z,8.36
2023-01-07T03:22:23.691Z,7.88
2023-01-07T03:24:54.213Z,8.14
2023-01-07T03:27:24.906Z,7.96
2023-01-07T03:29:56.150Z,7.76
2023-01-07T03:32:27.382Z,7.91
2023-01-07T03:34:57.492Z,7.87
2023-01-07T03:37:27.767Z,7.97
2023-01-07T03:39:58.585Z,8.04
2023-01-07T03:42:42.256Z,7.84
2023-01-07T03:45:17.655Z,7.70
2023-01-07T03:47:48.375Z,7.53
2023-01-07T03:50:19.769Z,7.81
2023-01-07T03:52:49.591Z,7.84
2023-01-07T03:55:19.557Z,7.57
2023-01-07T03:57:49.573Z,7.55
2023-01-07T04:00:18.798Z,7.60
2023-01-07T04:02:54.888Z,7.51
2023-01-07T04:05:29.090Z,7.36
2023-01-07T04:07:57.173Z,7.29
2023-01-07T04:10:27.033Z,7.35
2023-01-07T04:12:55.242Z,7.50
2023-01-07T04:15:23.812Z,7.46
2023-01-07T04:17:52.151Z,7.40
2023-01-07T04:20:20.399Z,7.57
2023-01-07T04:22:49.874Z,7.29
2023-01-07T04:25:18.421Z,7.36
2023-01-07T04:27:46.791Z,7.25
2023-01-07T04:30:15.059Z,7.41
2023-01-07T04:32:43.208Z,7.14
2023-01-07T04:35:12.033Z,7.23
2023-01-07T04:37:40.623Z,7.30
2023-01-07T04:40:11.545Z,7.40
2023-01-07T04:42:40.170Z,7.50
2023-01-07T04:45:10.563Z,7.40
2023-01-07T04:47:38.887Z,7.28
2023-01-07T04:50:09.039Z,7.28
2023-01-07T04:52:37.964Z,7.21
2023-01-07T04:55:07.989Z,7.12
2023-01-07T04:57:37.606Z,7.08
2023-01-07T05:00:07.476Z,6.92
2023-01-07T05:02:35.970Z,6.71
2023-01-07T05:05:04.360Z,6.58
2023-01-07T05:07:33.067Z,6.60
2023-01-07T05:10:02.058Z,6.88
2023-01-07T05:12:34.879Z,7.06
2023-01-07T05:15:06.069Z,6.86
2023-01-07T05:17:35.962Z,7.12
2023-01-07T05:20:06.656Z,7.18
2023-01-07T05:22:35.695Z,7.38
2023-01-07T05:25:04.512Z,7.33
2023-01-07T05:27:33.151Z,7.26
2023-01-07T05:30:02.138Z,7.09
2023-01-07T05:32:31.634Z,7.19
2023-01-07T05:35:00.007Z,7.21
2023-01-07T05:37:28.545Z,7.17
2023-01-07T05:39:57.716Z,6.98
2023-01-07T05:42:25.955Z,6.98
2023-01-07T05:44:54.112Z,7.37
2023-01-07T05:47:22.243Z,7.27
2023-01-07T05:49:51.730Z,7.40
2023-01-07T05:52:19.813Z,7.59
2023-01-07T05:54:47.879Z,7.61
2023-01-07T05:57:15.937Z,7.12
2023-01-07T05:59:44.059Z,7.03
2023-01-07T06:02:12.092Z,7.14
2023-01-07T06:04:40.251Z,6.77
2023-01-07T06:07:09.774Z,6.59
2023-01-07T06:09:37.908Z,6.45
2023-01-07T06:12:06.360Z,6.57
2023-01-07T06:14:34.464Z,6.80
2023-01-07T06:17:02.579Z,6.90
2023-01-07T06:19:30.746Z,7.03
2023-01-07T06:21:59.578Z,6.95
2023-01-07T06:24:29.573Z,6.65
2023-01-07T06:26:57.730Z,6.53
2023-01-07T06:29:25.936Z,6.33
2023-01-07T06:31:54.039Z,6.23
2023-01-07T06:34:22.258Z,6.05
2023-01-07T06:36:50.345Z,7.14
2023-01-07T06:39:18.491Z,6.44
2023-01-07T06:41:48.004Z,6.37
2023-01-07T06:44:16.268Z,7.82
2023-01-07T06:46:44.377Z,8.06
2023-01-07T06:49:12.735Z,8.21
2023-01-07T06:51:40.841Z,8.52
2023-01-07T06:54:09.021Z,8.58
2023-01-07T06:56:37.059Z,8.41
2023-01-07T06:59:06.587Z,8.08
2023-01-07T07:01:34.761Z,8.49
2023-01-07T07:04:03.037Z,8.35
2023-01-07T07:06:31.088Z,8.31
2023-01-07T07:08:59.183Z,8.50
2023-01-07T07:11:27.283Z,8.37
2023-01-07T07:13:55.439Z,8.40
2023-01-07T07:16:25.099Z,8.64
2023-01-07T07:18:54.193Z,8.96
2023-01-07T07:21:22.727Z,9.05
2023-01-07T07:23:50.806Z,9.12
2023-01-07T07:26:19.052Z,9.28
2023-01-07T07:28:47.099Z,9.33
2023-01-07T07:31:15.230Z,9.30
2023-01-07T07:33:44.739Z,9.51
2023-01-07T07:36:12.789Z,9.48
2023-01-07T07:38:40.950Z,9.55
2023-01-07T07:41:09.034Z,9.63
2023-01-07T07:43:37.387Z,9.67
2023-01-07T07:46:05.950Z,9.54
2023-01-07T07:48:34.262Z,9.52
2023-01-07T07:51:07.021Z,9.32
2023-01-07T07:53:35.194Z,9.52
2023-01-07T07:56:03.374Z,9.81
2023-01-07T07:58:31.472Z,9.88
2023-01-07T08:00:59.701Z,9.25
2023-01-07T08:03:27.890Z,8.78
2023-01-07T08:05:55.974Z,8.91
2023-01-07T08:08:25.558Z,9.06
2023-01-07T08:10:56.265Z,8.81
2023-01-07T08:13:24.740Z,8.99
2023-01-07T08:15:53.245Z,8.86
2023-01-07T08:18:21.336Z,9.04
2023-01-07T08:20:49.402Z,9.42
2023-01-07T08:23:18.036Z,9.73
2023-01-07T08:25:47.528Z,9.84
2023-01-07T08:28:15.709Z,9.79
2023-01-07T08:30:44.483Z,9.57
2023-01-07T08:33:12.873Z,9.84
2023-01-07T08:35:40.926Z,9.40
2023-01-07T08:38:10.493Z,8.66
2023-01-07T08:40:39.549Z,8.05
2023-01-07T08:43:10.001Z,8.42
2023-01-07T08:45:38.083Z,8.30
2023-01-07T08:48:06.694Z,7.50
2023-01-07T08:50:35.317Z,7.28
2023-01-07T08:53:03.511Z,8.05
2023-01-07T08:55:31.595Z,8.13
2023-01-07T08:57:59.779Z,8.47
2023-01-07T09:00:29.331Z,8.92
2023-01-07T09:02:57.439Z,8.72
2023-01-07T09:05:25.722Z,8.93
2023-01-07T09:07:54.578Z,9.02
2023-01-07T09:10:23.159Z,9.56
2023-01-07T09:12:51.553Z,9.81
2023-01-07T09:15:19.678Z,10.12
2023-01-07T09:17:49.207Z,10.24
2023-01-07T09:20:17.397Z,10.00
2023-01-07T09:22:45.735Z,10.02
2023-01-07T09:25:14.053Z,10.10
2023-01-07T09:27:43.374Z,10.20
2023-01-07T09:30:12.347Z,10.56
2023-01-07T09:32:40.484Z,10.23
2023-01-07T09:35:11.020Z,10.38
2023-01-07T09:37:39.230Z,9.27
2023-01-07T09:40:09.268Z,8.80
2023-01-07T09:42:46.704Z,8.50
2023-01-07T09:45:18.283Z,8.49
2023-01-07T09:47:49.276Z,8.45
2023-01-07T09:50:29.652Z,8.61
2023-01-07T09:53:01.789Z,8.69
2023-01-07T09:55:34.541Z,8.59
2023-01-07T09:58:02.976Z,8.60
2023-01-07T10:00:34.553Z,8.54
2023-01-07T10:03:14.467Z,8.68
2023-01-07T10:05:57.111Z,8.81
2023-01-07T10:08:35.332Z,8.94
2023-01-07T10:11:15.225Z,9.02
2023-01-07T10:13:55.955Z,9.06
2023-01-07T10:16:33.933Z,9.10
2023-01-07T10:19:09.455Z,9.23
2023-01-07T10:21:45.430Z,9.33
2023-01-07T10:24:22.007Z,9.40
2023-01-07T10:26:54.473Z,9.44
2023-01-07T10:29:31.014Z,9.54
2023-01-07T10:32:06.185Z,9.64
2023-01-07T10:34:38.697Z,9.76
2023-01-07T10:37:15.647Z,9.85
2023-01-07T10:39:52.586Z,9.93
2023-01-07T10:42:30.121Z,9.96
2023-01-07T10:45:22.720Z,10.05
2023-01-07T10:48:05.035Z,10.12
2023-01-07T10:51:01.135Z,10.25
2023-01-07T10:53:45.063Z,10.29
2023-01-07T10:56:24.506Z,10.32
2023-01-07T10:58:52.639Z,10.47
2023-01-07T11:01:26.059Z,10.52
2023-01-07T11:03:56.031Z,10.49
2023-01-07T11:06:33.091Z,10.53
2023-01-07T11:09:05.920Z,10.46
2023-01-07T11:11:34.963Z,10.67
2023-01-07T11:14:07.847Z,10.67
2023-01-07T11:16:49.249Z,10.80
2023-01-07T11:19:22.580Z,10.90
2023-01-07T11:21:52.270Z,10.90
2023-01-07T11:24:35.073Z,10.88
2023-01-07T11:27:14.137Z,10.75
2023-01-07T11:29:45.497Z,10.87
2023-01-07T11:32:22.613Z,10.95
2023-01-07T11:34:56.502Z,11.03
2023-01-07T11:37:38.454Z,10.82
2023-01-07T11:40:24.029Z,10.60
2023-01-07T11:42:55.129Z,10.72
2023-01-07T11:45:25.118Z,10.98
2023-01-07T11:48:08.705Z,11.20
2023-01-07T11:50:40.147Z,11.26
2023-01-07T11:53:32.558Z,11.14
2023-01-07T11:56:04.555Z,11.14
2023-01-07T11:58:34.504Z,12.11
2023-01-07T12:01:14.508Z,11.12
2023-01-07T12:03:45.382Z,11.19
2023-01-07T12:06:21.122Z,11.36
2023-01-07T12:08:56.201Z,11.55
2023-01-07T12:11:32.286Z,11.75
2023-01-07T12:14:08.802Z,11.37
2023-01-07T12:16:37.399Z,11.14
2023-01-07T12:19:22.730Z,11.52
2023-01-07T12:22:13.155Z,12.25
2023-01-07T12:25:03.126Z,12.72
2023-01-07T12:27:46.650Z,13.32
2023-01-07T12:30:47.453Z,13.72
2023-01-07T12:33:26.829Z,13.23
2023-01-07T12:35:59.211Z,13.53
2023-01-07T12:38:42.286Z,13.68
2023-01-07T12:41:19.717Z,13.05
2023-01-07T12:43:59.962Z,13.22
2023-01-07T12:46:32.217Z,12.86
2023-01-07T12:49:06.738Z,12.63
2023-01-07T12:51:41.132Z,12.91
2023-01-07T12:54:16.750Z,12.38
2023-01-07T12:56:49.226Z,12.91
2023-01-07T12:59:46.418Z,13.34
2023-01-07T13:02:21.040Z,12.91
2023-01-07T13:04:59.640Z,13.21
2023-01-07T13:07:36.854Z,13.23
2023-01-07T13:10:12.224Z,13.39
2023-01-07T13:12:46.289Z,13.47
2023-01-07T13:15:23.735Z,13.34
2023-01-07T13:17:54.198Z,13.30
2023-01-07T13:20:38.572Z,13.38
2023-01-07T13:23:08.836Z,13.28
2023-01-07T13:25:51.785Z,13.46
2023-01-07T13:28:40.879Z,13.65
2023-01-07T13:31:22.761Z,13.65
2023-01-07T13:34:00.665Z,13.65
2023-01-07T13:36:36.426Z,13.61
2023-01-07T13:39:45.112Z,13.68
2023-01-07T13:42:29.597Z,13.54
2023-01-07T13:45:02.932Z,13.22
2023-01-07T13:47:43.736Z,13.24
2023-01-07T13:50:21.177Z,13.09
2023-01-07T13:52:59.095Z,13.09
2023-01-07T13:55:46.103Z,13.23
2023-01-07T13:58:45.857Z,13.12
2023-01-07T14:01:15.464Z,13.01
2023-01-07T14:03:50.212Z,13.05
2023-01-07T14:06:43.571Z,13.03
2023-01-07T14:09:43.670Z,13.01
2023-01-07T14:12:40.010Z,13.09
2023-01-07T14:15:38.463Z,12.92
2023-01-07T14:18:37.240Z,13.08
2023-01-07T14:21:18.913Z,13.04
2023-01-07T14:23:58.456Z,12.90
2023-01-07T14:26:34.365Z,12.84
2023-01-07T14:29:34.946Z,12.75
2023-01-07T14:32:28.078Z,12.67
2023-01-07T14:34:59.644Z,12.51
2023-01-07T14:37:35.296Z,12.46
2023-01-07T14:40:56.519Z,12.39
2023-01-07T14:43:47.737Z,12.15
2023-01-07T14:46:52.068Z,12.06
2023-01-07T14:49:51.165Z,12.05
2023-01-07T14:52:45.061Z,11.90
2023-01-07T14:55:38.928Z,11.74
2023-01-07T14:58:38.217Z,11.60
2023-01-07T15:01:48.834Z,11.60
2023-01-07T15:05:03.693Z,11.46
2023-01-07T15:07:35.351Z,11.22
2023-01-07T15:10:36.174Z,11.25
2023-01-07T15:13:25.941Z,11.27
2023-01-07T15:16:06.401Z,11.15
2023-01-07T15:18:47.136Z,11.09
2023-01-07T15:21:24.263Z,11.09
2023-01-07T15:24:01.691Z,10.98
2023-01-07T15:26:41.438Z,10.84
2023-01-07T15:29:17.209Z,10.76
2023-01-07T15:31:55.938Z,10.66
2023-01-07T15:34:30.817Z,10.62
2023-01-07T15:36:59.338Z,10.48
2023-01-07T15:39:30.792Z,10.31
2023-01-07T15:42:01.511Z,10.29
2023-01-07T15:44:40.474Z,10.29
2023-01-07T15:47:37.600Z,10.22
2023-01-07T15:50:28.068Z,10.12
2023-01-07T15:52:58.132Z,10.05
2023-01-07T15:55:28.780Z,9.95
2023-01-07T15:58:04.219Z,9.82
2023-01-07T16:00:32.479Z,9.85
2023-01-07T16:03:01.159Z,9.80
2023-01-07T16:05:29.571Z,9.66
2023-01-07T16:07:59.440Z,9.65
2023-01-07T16:10:32.033Z,9.57
2023-01-07T16:13:03.042Z,9.50
2023-01-07T16:15:32.950Z,9.38
2023-01-07T16:18:02.788Z,9.34
2023-01-07T16:20:34.641Z,9.25
2023-01-07T16:23:19.322Z,9.18
2023-01-07T16:25:50.489Z,9.23
2023-01-07T16:28:22.406Z,9.16
2023-01-07T16:30:52.711Z,9.07
2023-01-07T16:33:23.693Z,9.02
2023-01-07T16:35:54.333Z,8.94
2023-01-07T16:38:23.256Z,8.93
2023-01-07T16:40:52.502Z,8.82
2023-01-07T16:43:45.319Z,8.83
2023-01-07T16:46:27.766Z,8.74
2023-01-07T16:49:21.724Z,8.67
2023-01-07T16:51:51.207Z,8.66
2023-01-07T16:54:33.579Z,8.52
2023-01-07T16:57:04.176Z,8.58
2023-01-07T16:59:35.506Z,8.50
2023-01-07T17:02:14.023Z,8.46
2023-01-07T17:04:42.445Z,8.39
2023-01-07T17:07:20.125Z,8.33
2023-01-07T17:09:48.701Z,8.35
2023-01-07T17:12:30.605Z,8.31
2023-01-07T17:15:00.622Z,8.28
2023-01-07T17:17:32.074Z,8.27
2023-01-07T17:20:19.912Z,8.14
2023-01-07T17:22:49.614Z,8.04
2023-01-07T17:25:24.590Z,7.99
2023-01-07T17:27:56.362Z,7.89
2023-01-07T17:30:34.395Z,7.67
2023-01-07T17:33:02.688Z,7.72
2023-01-07T17:35:30.916Z,7.50
2023-01-07T17:37:58.989Z,7.53
2023-01-07T17:40:27.090Z,7.40
2023-01-07T17:43:14.414Z,7.41
2023-01-07T17:45:43.953Z,7.41
2023-01-07T17:48:14.660Z,7.25
2023-01-07T17:50:43.848Z,7.20
2023-01-07T17:53:22.838Z,7.11
2023-01-07T17:55:51.103Z,7.07
2023-01-07T17:58:28.913Z,7.06
2023-01-07T18:01:00.180Z,7.11
2023-01-07T18:03:28.900Z,7.06
2023-01-07T18:05:57.079Z,7.10
2023-01-07T18:08:25.358Z,7.09
2023-01-07T18:11:11.313Z,7.08
2023-01-07T18:13:39.669Z,7.10
2023-01-07T18:16:13.239Z,7.09
2023-01-07T18:18:41.360Z,7.07
2023-01-07T18:21:12.493Z,7.07
2023-01-07T18:23:40.646Z,7.03
2023-01-07T18:26:09.020Z,7.00
2023-01-07T18:28:37.134Z,7.00
2023-01-07T18:31:05.484Z,7.01
2023-01-07T18:33:35.447Z,6.96
2023-01-07T18:36:03.800Z,6.97
2023-01-07T18:38:31.970Z,6.93
2023-01-07T18:41:00.409Z,6.90
2023-01-07T18:43:28.543Z,6.87
2023-01-07T18:45:56.676Z,6.81
2023-01-07T18:48:25.407Z,6.82
2023-01-07T18:50:54.892Z,6.79
2023-01-07T18:53:26.713Z,6.75
2023-01-07T18:56:01.379Z,6.65
2023-01-07T18:58:29.781Z,6.67
2023-01-07T19:01:03.389Z,6.62
2023-01-07T19:03:31.619Z,6.57
2023-01-07T19:06:01.141Z,6.53
2023-01-07T19:08:29.426Z,6.41
2023-01-07T19:10:57.684Z,6.41
2023-01-07T19:13:25.787Z,6.46
2023-01-07T19:15:53.886Z,6.46
2023-01-07T19:18:21.969Z,6.40
2023-01-07T19:20:50.175Z,6.45
2023-01-07T19:23:19.776Z,6.44
2023-01-07T19:25:57.809Z,6.36
2023-01-07T19:28:26.090Z,6.35
2023-01-07T19:30:54.599Z,6.33
2023-01-07T19:33:22.980Z,6.32
2023-01-07T19:35:51.218Z,6.22
2023-01-07T19:38:20.656Z,6.22
2023-01-07T19:40:48.780Z,6.24
2023-01-07T19:43:16.869Z,6.20
2023-01-07T19:45:54.544Z,6.17
2023-01-07T19:48:22.941Z,6.15
2023-01-07T19:50:55.689Z,6.13
2023-01-07T19:53:25.147Z,6.11
2023-01-07T19:55:54.492Z,6.04
2023-01-07T19:58:22.740Z,5.96
2023-01-07T20:00:50.954Z,5.98
2023-01-07T20:03:19.026Z,5.88
2023-01-07T20:05:47.088Z,5.87
2023-01-07T20:08:15.200Z,5.84
2023-01-07T20:10:44.657Z,5.78
2023-01-07T20:13:12.780Z,5.84
2023-01-07T20:15:40.802Z,5.83
2023-01-07T20:18:08.846Z,5.75
2023-01-07T20:20:36.904Z,5.74
2023-01-07T20:23:05.069Z,5.75
2023-01-07T20:25:33.254Z,5.76
2023-01-07T20:28:02.754Z,5.77
2023-01-07T20:30:30.809Z,5.75
2023-01-07T20:32:58.923Z,5.68
2023-01-07T20:35:26.980Z,5.70
2023-01-07T20:37:55.139Z,5.74
2023-01-07T20:40:23.304Z,5.75
2023-01-07T20:42:51.361Z,5.72
2023-01-07T20:45:20.862Z,5.71
2023-01-07T20:47:48.946Z,5.72
2023-01-07T20:50:18.430Z,5.70
2023-01-07T20:52:46.514Z,5.65
2023-01-07T20:55:14.652Z,5.49
2023-01-07T20:57:42.809Z,5.52
2023-01-07T21:00:12.546Z,5.46
2023-01-07T21:02:42.098Z,5.40
2023-01-07T21:05:10.693Z,5.40
2023-01-07T21:07:38.733Z,5.34
2023-01-07T21:10:07.731Z,5.29
2023-01-07T21:12:35.797Z,5.26
2023-01-07T21:15:04.297Z,5.24
2023-01-07T21:17:32.463Z,5.19
2023-01-07T21:20:01.903Z,5.17
2023-01-07T21:22:30.125Z,5.16
2023-01-07T21:24:58.216Z,5.14
2023-01-07T21:27:26.429Z,5.11
2023-01-07T21:29:54.481Z,5.08
2023-01-07T21:32:22.574Z,5.02
2023-01-07T21:34:50.683Z,4.99
2023-01-07T21:37:20.295Z,4.93
2023-01-07T21:39:51.420Z,4.98
2023-01-07T21:42:19.728Z,5.00
2023-01-07T21:44:47.784Z,4.98
2023-01-07T21:47:15.903Z,4.89
2023-01-07T21:49:44.299Z,4.91
2023-01-07T21:52:12.542Z,4.94
2023-01-07T21:54:42.015Z,4.94
2023-01-07T21:57:10.117Z,4.92
2023-01-07T21:59:38.173Z,4.93
2023-01-07T22:02:06.521Z,4.94
2023-01-07T22:04:35.009Z,4.89
2023-01-07T22:07:03.098Z,4.87
2023-01-07T22:09:31.157Z,4.85
2023-01-07T22:12:00.694Z,4.83
2023-01-07T22:14:28.922Z,4.83
2023-01-07T22:16:57.097Z,4.82
2023-01-07T22:19:25.995Z,4.83
2023-01-07T22:21:54.159Z,4.82
2023-01-07T22:24:22.225Z,4.82
2023-01-07T22:26:50.333Z,4.81
2023-01-07T22:29:19.947Z,4.83
2023-01-07T22:31:51.082Z,4.85
2023-01-07T22:34:20.110Z,4.88
2023-01-07T22:36:54.415Z,4.88
2023-01-07T22:39:25.816Z,4.91
2023-01-07T22:41:59.250Z,4.91
2023-01-07T22:44:34.967Z,4.86
2023-01-07T22:47:04.350Z,4.92
2023-01-07T22:49:33.422Z,4.94
2023-01-07T22:52:01.743Z,4.96
2023-01-07T22:54:30.262Z,4.96
2023-01-07T22:57:01.240Z,4.94
2023-01-07T22:59:30.834Z,4.93
2023-01-07T23:01:58.893Z,4.98
2023-01-07T23:04:27.074Z,5.03
2023-01-07T23:06:55.265Z,5.08
2023-01-07T23:09:23.407Z,5.10
2023-01-07T23:11:51.986Z,5.12
2023-01-07T23:14:22.192Z,5.10
2023-01-07T23:16:52.976Z,5.12
2023-01-07T23:19:21.703Z,5.07
2023-01-07T23:21:51.432Z,5.09
2023-01-07T23:24:19.881Z,5.11
2023-01-07T23:26:49.271Z,5.00
2023-01-07T23:29:17.555Z,5.03
2023-01-07T23:31:45.801Z,5.00
2023-01-07T23:34:16.492Z,5.01
2023-01-07T23:36:44.643Z,5.00
2023-01-07T23:39:13.041Z,5.07
2023-01-07T23:41:41.252Z,4.98
2023-01-07T23:44:09.342Z,4.96
2023-01-07T23:46:37.626Z,4.96
2023-01-07T23:49:05.945Z,4.96
2023-01-07T23:51:35.451Z,4.99
2023-01-07T23:54:03.497Z,5.00
2023-01-07T23:56:31.723Z,5.06
2023-01-07T23:59:02.775Z,5.02
